sensor_id;sensor_type;location;lat;lon;timestamp;temperature;humidity
47162;DHT22;32921;53.256;8.198;2022-07-04T00:00:19;12.60;99.90
47162;DHT22;32921;53.256;8.198;2022-07-04T00:02:46;12.60;99.90
47162;DHT22;32921;53.256;8.198;2022-07-04T00:05:13;12.50;99.90
47162;DHT22;32921;53.256;8.198;2022-07-04T00:07:40;12.60;99.90
47162;DHT22;32921;53.256;8.198;2022-07-04T00:10:07;12.50;99.90
47162;DHT22;32921;53.256;8.198;2022-07-04T00:12:33;12.50;99.90
47162;DHT22;32921;53.256;8.198;2022-07-04T00:14:59;12.50;99.90
47162;DHT22;32921;53.256;8.198;2022-07-04T00:17:25;12.40;99.90
47162;DHT22;32921;53.256;8.198;2022-07-04T00:19:51;12.20;99.90
47162;DHT22;32921;53.256;8.198;2022-07-04T00:22:16;12.00;99.90
47162;DHT22;32921;53.256;8.198;2022-07-04T00:24:42;12.00;99.90
47162;DHT22;32921;53.256;8.198;2022-07-04T00:27:08;12.20;99.90
47162;DHT22;32921;53.256;8.198;2022-07-04T00:29:33;12.20;99.90
47162;DHT22;32921;53.256;8.198;2022-07-04T00:32:00;12.30;99.90
47162;DHT22;32921;53.256;8.198;2022-07-04T00:34:25;12.10;99.90
47162;DHT22;32921;53.256;8.198;2022-07-04T00:36:51;12.10;99.90
47162;DHT22;32921;53.256;8.198;2022-07-04T00:39:17;12.10;99.90
47162;DHT22;32921;53.256;8.198;2022-07-04T00:41:43;12.10;99.90
47162;DHT22;32921;53.256;8.198;2022-07-04T00:44:11;12.00;99.90
47162;DHT22;32921;53.256;8.198;2022-07-04T00:46:36;12.10;99.90
47162;DHT22;32921;53.256;8.198;2022-07-04T00:49:06;12.20;99.90
47162;DHT22;32921;53.256;8.198;2022-07-04T00:51:32;12.20;99.90
47162;DHT22;32921;53.256;8.198;2022-07-04T00:53:58;12.10;99.90
47162;DHT22;32921;53.256;8.198;2022-07-04T00:56:25;12.20;99.90
47162;DHT22;32921;53.256;8.198;2022-07-04T00:58:51;12.10;99.90
47162;DHT22;32921;53.256;8.198;2022-07-04T01:01:17;12.10;99.90
47162;DHT22;32921;53.256;8.198;2022-07-04T01:03:43;12.10;99.90
47162;DHT22;32921;53.256;8.198;2022-07-04T01:06:16;12.10;99.90
47162;DHT22;32921;53.256;8.198;2022-07-04T01:08:42;12.10;99.90
47162;DHT22;32921;53.256;8.198;2022-07-04T01:11:09;12.10;99.90
47162;DHT22;32921;53.256;8.198;2022-07-04T01:13:35;12.10;99.90
47162;DHT22;32921;53.256;8.198;2022-07-04T01:16:02;11.90;99.90
47162;DHT22;32921;53.256;8.198;2022-07-04T01:18:28;11.90;99.90
47162;DHT22;32921;53.256;8.198;2022-07-04T01:20:53;11.90;99.90
47162;DHT22;32921;53.256;8.198;2022-07-04T01:23:19;12.00;99.90
47162;DHT22;32921;53.256;8.198;2022-07-04T01:25:45;11.90;99.90
47162;DHT22;32921;53.256;8.198;2022-07-04T01:28:11;11.80;99.90
47162;DHT22;32921;53.256;8.198;2022-07-04T01:30:37;11.80;99.90
47162;DHT22;32921;53.256;8.198;2022-07-04T01:33:03;11.80;99.90
47162;DHT22;32921;53.256;8.198;2022-07-04T01:35:35;11.70;99.90
47162;DHT22;32921;53.256;8.198;2022-07-04T01:38:01;11.70;99.90
47162;DHT22;32921;53.256;8.198;2022-07-04T01:40:27;11.70;99.90
47162;DHT22;32921;53.256;8.198;2022-07-04T01:42:52;11.90;99.90
47162;DHT22;32921;53.256;8.198;2022-07-04T01:45:18;12.00;99.90
47162;DHT22;32921;53.256;8.198;2022-07-04T01:47:44;11.80;99.90
47162;DHT22;32921;53.256;8.198;2022-07-04T01:50:10;11.70;99.90
47162;DHT22;32921;53.256;8.198;2022-07-04T01:52:39;11.80;99.90
47162;DHT22;32921;53.256;8.198;2022-07-04T01:55:06;11.70;99.90
47162;DHT22;32921;53.256;8.198;2022-07-04T01:57:32;11.70;99.90
47162;DHT22;32921;53.256;8.198;2022-07-04T01:59:58;11.60;99.90
47162;DHT22;32921;53.256;8.198;2022-07-04T02:02:42;11.50;99.90
47162;DHT22;32921;53.256;8.198;2022-07-04T02:05:07;11.50;99.90
47162;DHT22;32921;53.256;8.198;2022-07-04T02:07:33;11.60;99.90
47162;DHT22;32921;53.256;8.198;2022-07-04T02:09:59;11.50;99.90
47162;DHT22;32921;53.256;8.198;2022-07-04T02:12:25;11.60;99.90
47162;DHT22;32921;53.256;8.198;2022-07-04T02:15:09;11.50;99.90
47162;DHT22;32921;53.256;8.198;2022-07-04T02:17:35;11.50;99.90
47162;DHT22;32921;53.256;8.198;2022-07-04T02:20:00;11.50;99.90
47162;DHT22;32921;53.256;8.198;2022-07-04T02:22:26;11.50;99.90
47162;DHT22;32921;53.256;8.198;2022-07-04T02:24:52;11.60;99.90
47162;DHT22;32921;53.256;8.198;2022-07-04T02:27:17;11.50;99.90
47162;DHT22;32921;53.256;8.198;2022-07-04T02:29:43;11.30;99.90
47162;DHT22;32921;53.256;8.198;2022-07-04T02:32:09;11.30;99.90
47162;DHT22;32921;53.256;8.198;2022-07-04T02:34:35;11.30;99.90
47162;DHT22;32921;53.256;8.198;2022-07-04T02:37:01;11.30;99.90
47162;DHT22;32921;53.256;8.198;2022-07-04T02:39:26;11.30;99.90
47162;DHT22;32921;53.256;8.198;2022-07-04T02:41:52;11.30;99.90
47162;DHT22;32921;53.256;8.198;2022-07-04T02:44:18;11.20;99.90
47162;DHT22;32921;53.256;8.198;2022-07-04T02:46:43;11.10;99.90
47162;DHT22;32921;53.256;8.198;2022-07-04T02:49:09;11.10;99.90
47162;DHT22;32921;53.256;8.198;2022-07-04T02:51:34;11.10;99.90
47162;DHT22;32921;53.256;8.198;2022-07-04T02:54:00;11.30;99.90
47162;DHT22;32921;53.256;8.198;2022-07-04T02:56:26;11.30;99.90
47162;DHT22;32921;53.256;8.198;2022-07-04T02:58:51;11.20;99.90
47162;DHT22;32921;53.256;8.198;2022-07-04T03:01:17;11.10;99.90
47162;DHT22;32921;53.256;8.198;2022-07-04T03:03:45;11.10;99.90
47162;DHT22;32921;53.256;8.198;2022-07-04T03:06:11;11.00;99.90
47162;DHT22;32921;53.256;8.198;2022-07-04T03:08:38;10.80;99.90
47162;DHT22;32921;53.256;8.198;2022-07-04T03:11:04;11.00;99.90
47162;DHT22;32921;53.256;8.198;2022-07-04T03:13:30;11.20;99.90
47162;DHT22;32921;53.256;8.198;2022-07-04T03:15:55;11.00;99.90
47162;DHT22;32921;53.256;8.198;2022-07-04T03:18:21;10.80;99.90
47162;DHT22;32921;53.256;8.198;2022-07-04T03:20:47;10.80;99.90
47162;DHT22;32921;53.256;8.198;2022-07-04T03:23:13;10.80;99.90
47162;DHT22;32921;53.256;8.198;2022-07-04T03:25:39;10.70;99.90
47162;DHT22;32921;53.256;8.198;2022-07-04T03:28:05;10.90;99.90
47162;DHT22;32921;53.256;8.198;2022-07-04T03:30:31;10.90;99.90
47162;DHT22;32921;53.256;8.198;2022-07-04T03:32:58;10.90;99.90
47162;DHT22;32921;53.256;8.198;2022-07-04T03:35:23;10.80;99.90
47162;DHT22;32921;53.256;8.198;2022-07-04T03:37:49;11.00;99.90
47162;DHT22;32921;53.256;8.198;2022-07-04T03:40:16;11.10;99.90
47162;DHT22;32921;53.256;8.198;2022-07-04T03:42:42;11.30;99.90
47162;DHT22;32921;53.256;8.198;2022-07-04T03:45:08;11.10;99.90
47162;DHT22;32921;53.256;8.198;2022-07-04T03:47:33;11.30;99.90
47162;DHT22;32921;53.256;8.198;2022-07-04T03:49:59;11.30;99.90
47162;DHT22;32921;53.256;8.198;2022-07-04T03:52:25;11.50;99.90
47162;DHT22;32921;53.256;8.198;2022-07-04T03:54:50;11.50;99.90
47162;DHT22;32921;53.256;8.198;2022-07-04T03:57:16;11.50;99.90
47162;DHT22;32921;53.256;8.198;2022-07-04T03:59:41;11.40;99.90
47162;DHT22;32921;53.256;8.198;2022-07-04T04:02:07;11.70;99.90
47162;DHT22;32921;53.256;8.198;2022-07-04T04:04:32;11.80;99.90
47162;DHT22;32921;53.256;8.198;2022-07-04T04:07:16;11.80;99.90
47162;DHT22;32921;53.256;8.198;2022-07-04T04:09:42;12.00;99.90
47162;DHT22;32921;53.256;8.198;2022-07-04T04:12:08;12.00;99.90
47162;DHT22;32921;53.256;8.198;2022-07-04T04:14:33;12.10;99.90
47162;DHT22;32921;53.256;8.198;2022-07-04T04:16:59;12.10;99.90
47162;DHT22;32921;53.256;8.198;2022-07-04T04:19:25;12.20;99.90
47162;DHT22;32921;53.256;8.198;2022-07-04T04:21:50;12.20;99.90
47162;DHT22;32921;53.256;8.198;2022-07-04T04:24:16;12.30;99.90
47162;DHT22;32921;53.256;8.198;2022-07-04T04:26:41;12.30;99.90
47162;DHT22;32921;53.256;8.198;2022-07-04T04:29:07;12.40;99.90
47162;DHT22;32921;53.256;8.198;2022-07-04T04:31:32;12.40;99.90
47162;DHT22;32921;53.256;8.198;2022-07-04T04:33:58;12.60;99.90
47162;DHT22;32921;53.256;8.198;2022-07-04T04:36:24;12.60;99.90
47162;DHT22;32921;53.256;8.198;2022-07-04T04:38:50;12.70;99.90
47162;DHT22;32921;53.256;8.198;2022-07-04T04:41:15;12.80;99.90
47162;DHT22;32921;53.256;8.198;2022-07-04T04:43:42;12.90;99.90
47162;DHT22;32921;53.256;8.198;2022-07-04T04:46:08;13.00;99.90
47162;DHT22;32921;53.256;8.198;2022-07-04T04:48:34;13.00;99.90
47162;DHT22;32921;53.256;8.198;2022-07-04T04:50:59;13.10;99.90
47162;DHT22;32921;53.256;8.198;2022-07-04T04:53:25;13.20;99.90
47162;DHT22;32921;53.256;8.198;2022-07-04T04:55:54;13.20;99.90
47162;DHT22;32921;53.256;8.198;2022-07-04T04:58:21;13.20;99.90
47162;DHT22;32921;53.256;8.198;2022-07-04T05:00:47;13.40;99.90
47162;DHT22;32921;53.256;8.198;2022-07-04T05:03:15;13.50;99.90
47162;DHT22;32921;53.256;8.198;2022-07-04T05:05:41;13.60;99.90
47162;DHT22;32921;53.256;8.198;2022-07-04T05:08:07;13.70;99.90
47162;DHT22;32921;53.256;8.198;2022-07-04T05:10:32;13.80;99.90
47162;DHT22;32921;53.256;8.198;2022-07-04T05:12:58;13.90;99.90
47162;DHT22;32921;53.256;8.198;2022-07-04T05:15:23;14.20;99.90
47162;DHT22;32921;53.256;8.198;2022-07-04T05:17:49;15.00;99.90
47162;DHT22;32921;53.256;8.198;2022-07-04T05:20:15;15.60;99.90
47162;DHT22;32921;53.256;8.198;2022-07-04T05:22:41;16.10;99.90
47162;DHT22;32921;53.256;8.198;2022-07-04T05:25:07;16.60;99.90
47162;DHT22;32921;53.256;8.198;2022-07-04T05:27:33;16.80;99.90
47162;DHT22;32921;53.256;8.198;2022-07-04T05:29:59;17.20;99.90
47162;DHT22;32921;53.256;8.198;2022-07-04T05:32:25;17.50;99.90
47162;DHT22;32921;53.256;8.198;2022-07-04T05:34:51;17.50;99.90
47162;DHT22;32921;53.256;8.198;2022-07-04T05:37:17;17.90;99.90
47162;DHT22;32921;53.256;8.198;2022-07-04T05:39:42;18.20;99.90
47162;DHT22;32921;53.256;8.198;2022-07-04T05:42:08;18.30;99.90
47162;DHT22;32921;53.256;8.198;2022-07-04T05:44:34;18.30;99.90
47162;DHT22;32921;53.256;8.198;2022-07-04T05:46:59;18.40;99.90
47162;DHT22;32921;53.256;8.198;2022-07-04T05:49:25;18.70;99.90
47162;DHT22;32921;53.256;8.198;2022-07-04T05:51:50;19.00;99.90
47162;DHT22;32921;53.256;8.198;2022-07-04T05:54:16;19.40;99.90
47162;DHT22;32921;53.256;8.198;2022-07-04T05:56:42;19.90;99.90
47162;DHT22;32921;53.256;8.198;2022-07-04T05:59:09;20.00;99.90
47162;DHT22;32921;53.256;8.198;2022-07-04T06:01:35;20.40;99.90
47162;DHT22;32921;53.256;8.198;2022-07-04T06:04:01;20.40;99.90
47162;DHT22;32921;53.256;8.198;2022-07-04T06:06:27;20.20;99.90
47162;DHT22;32921;53.256;8.198;2022-07-04T06:08:53;19.90;99.90
47162;DHT22;32921;53.256;8.198;2022-07-04T06:11:18;19.90;99.90
47162;DHT22;32921;53.256;8.198;2022-07-04T06:13:44;20.40;99.90
47162;DHT22;32921;53.256;8.198;2022-07-04T06:16:09;20.70;99.90
47162;DHT22;32921;53.256;8.198;2022-07-04T06:18:35;21.00;99.90
47162;DHT22;32921;53.256;8.198;2022-07-04T06:21:00;21.10;99.90
47162;DHT22;32921;53.256;8.198;2022-07-04T06:23:26;21.10;99.90
47162;DHT22;32921;53.256;8.198;2022-07-04T06:25:52;21.50;99.90
47162;DHT22;32921;53.256;8.198;2022-07-04T06:28:17;21.50;99.90
47162;DHT22;32921;53.256;8.198;2022-07-04T06:30:43;21.80;99.90
47162;DHT22;32921;53.256;8.198;2022-07-04T06:33:08;21.70;99.30
47162;DHT22;32921;53.256;8.198;2022-07-04T06:35:34;22.00;99.90
47162;DHT22;32921;53.256;8.198;2022-07-04T06:38:16;22.50;97.90
47162;DHT22;32921;53.256;8.198;2022-07-04T06:40:42;22.20;96.80
47162;DHT22;32921;53.256;8.198;2022-07-04T06:43:08;22.40;97.30
47162;DHT22;32921;53.256;8.198;2022-07-04T06:45:34;22.70;97.10
47162;DHT22;32921;53.256;8.198;2022-07-04T06:48:01;23.10;96.40
47162;DHT22;32921;53.256;8.198;2022-07-04T06:50:27;23.30;95.40
47162;DHT22;32921;53.256;8.198;2022-07-04T06:52:53;23.40;94.10
47162;DHT22;32921;53.256;8.198;2022-07-04T06:55:39;23.50;93.40
47162;DHT22;32921;53.256;8.198;2022-07-04T06:58:05;23.60;93.30
47162;DHT22;32921;53.256;8.198;2022-07-04T07:00:32;23.50;92.50
47162;DHT22;32921;53.256;8.198;2022-07-04T07:02:58;23.70;92.50
47162;DHT22;32921;53.256;8.198;2022-07-04T07:05:28;23.60;91.30
47162;DHT22;32921;53.256;8.198;2022-07-04T07:07:54;23.90;92.50
47162;DHT22;32921;53.256;8.198;2022-07-04T07:10:20;24.40;90.80
47162;DHT22;32921;53.256;8.198;2022-07-04T07:12:46;24.60;89.70
47162;DHT22;32921;53.256;8.198;2022-07-04T07:15:12;24.20;88.30
47162;DHT22;32921;53.256;8.198;2022-07-04T07:17:39;24.00;90.00
47162;DHT22;32921;53.256;8.198;2022-07-04T07:20:05;24.10;90.00
47162;DHT22;32921;53.256;8.198;2022-07-04T07:22:34;24.20;89.00
47162;DHT22;32921;53.256;8.198;2022-07-04T07:25:02;24.50;88.70
47162;DHT22;32921;53.256;8.198;2022-07-04T07:27:28;24.50;89.70
47162;DHT22;32921;53.256;8.198;2022-07-04T07:29:54;24.60;85.90
47162;DHT22;32921;53.256;8.198;2022-07-04T07:32:19;24.70;84.10
47162;DHT22;32921;53.256;8.198;2022-07-04T07:34:45;24.70;84.00
47162;DHT22;32921;53.256;8.198;2022-07-04T07:37:10;24.60;84.80
47162;DHT22;32921;53.256;8.198;2022-07-04T07:39:36;24.90;82.70
47162;DHT22;32921;53.256;8.198;2022-07-04T07:42:01;25.00;83.60
47162;DHT22;32921;53.256;8.198;2022-07-04T07:44:27;25.80;84.50
47162;DHT22;32921;53.256;8.198;2022-07-04T07:46:53;25.90;80.50
47162;DHT22;32921;53.256;8.198;2022-07-04T07:49:18;25.40;79.00
47162;DHT22;32921;53.256;8.198;2022-07-04T07:51:44;24.70;79.10
47162;DHT22;32921;53.256;8.198;2022-07-04T07:54:10;24.70;80.40
47162;DHT22;32921;53.256;8.198;2022-07-04T07:56:35;25.20;79.70
47162;DHT22;32921;53.256;8.198;2022-07-04T07:59:01;25.70;80.90
47162;DHT22;32921;53.256;8.198;2022-07-04T08:01:26;25.50;76.20
47162;DHT22;32921;53.256;8.198;2022-07-04T08:03:52;25.40;78.30
47162;DHT22;32921;53.256;8.198;2022-07-04T08:06:36;25.80;77.50
47162;DHT22;32921;53.256;8.198;2022-07-04T08:09:02;25.80;76.60
47162;DHT22;32921;53.256;8.198;2022-07-04T08:11:28;25.50;78.70
47162;DHT22;32921;53.256;8.198;2022-07-04T08:13:53;25.90;76.00
47162;DHT22;32921;53.256;8.198;2022-07-04T08:16:19;25.70;75.30
47162;DHT22;32921;53.256;8.198;2022-07-04T08:18:45;25.50;75.50
47162;DHT22;32921;53.256;8.198;2022-07-04T08:21:10;25.50;75.90
47162;DHT22;32921;53.256;8.198;2022-07-04T08:23:37;25.40;76.00
47162;DHT22;32921;53.256;8.198;2022-07-04T08:26:03;24.90;75.40
47162;DHT22;32921;53.256;8.198;2022-07-04T08:28:29;24.40;77.60
47162;DHT22;32921;53.256;8.198;2022-07-04T08:30:58;24.50;78.10
47162;DHT22;32921;53.256;8.198;2022-07-04T08:33:24;24.70;78.70
47162;DHT22;32921;53.256;8.198;2022-07-04T08:35:50;25.30;76.40
47162;DHT22;32921;53.256;8.198;2022-07-04T08:38:16;26.10;74.90
47162;DHT22;32921;53.256;8.198;2022-07-04T08:40:42;26.00;74.00
47162;DHT22;32921;53.256;8.198;2022-07-04T08:43:13;26.30;77.70
47162;DHT22;32921;53.256;8.198;2022-07-04T08:45:40;27.00;71.90
47162;DHT22;32921;53.256;8.198;2022-07-04T08:48:07;27.00;73.30
47162;DHT22;32921;53.256;8.198;2022-07-04T08:50:38;26.50;70.40
47162;DHT22;32921;53.256;8.198;2022-07-04T08:53:11;27.30;71.30
47162;DHT22;32921;53.256;8.198;2022-07-04T08:55:39;27.40;72.20
47162;DHT22;32921;53.256;8.198;2022-07-04T08:58:24;27.60;71.40
47162;DHT22;32921;53.256;8.198;2022-07-04T09:00:57;28.10;71.50
47162;DHT22;32921;53.256;8.198;2022-07-04T09:03:24;28.20;70.20
47162;DHT22;32921;53.256;8.198;2022-07-04T09:05:50;28.00;68.20
47162;DHT22;32921;53.256;8.198;2022-07-04T09:08:15;27.70;68.60
47162;DHT22;32921;53.256;8.198;2022-07-04T09:10:41;28.20;69.30
47162;DHT22;32921;53.256;8.198;2022-07-04T09:13:08;28.60;67.30
47162;DHT22;32921;53.256;8.198;2022-07-04T09:15:35;29.00;66.20
47162;DHT22;32921;53.256;8.198;2022-07-04T09:18:01;29.60;63.40
47162;DHT22;32921;53.256;8.198;2022-07-04T09:20:29;29.90;62.80
47162;DHT22;32921;53.256;8.198;2022-07-04T09:22:55;29.50;62.70
47162;DHT22;32921;53.256;8.198;2022-07-04T09:25:23;28.80;66.20
47162;DHT22;32921;53.256;8.198;2022-07-04T09:27:53;28.70;64.10
47162;DHT22;32921;53.256;8.198;2022-07-04T09:30:28;28.40;65.00
47162;DHT22;32921;53.256;8.198;2022-07-04T09:32:57;28.30;63.80
47162;DHT22;32921;53.256;8.198;2022-07-04T09:35:30;27.50;64.00
47162;DHT22;32921;53.256;8.198;2022-07-04T09:37:58;27.20;66.00
47162;DHT22;32921;53.256;8.198;2022-07-04T09:40:27;26.40;66.40
47162;DHT22;32921;53.256;8.198;2022-07-04T09:42:57;25.60;68.50
47162;DHT22;32921;53.256;8.198;2022-07-04T09:45:23;24.90;68.30
47162;DHT22;32921;53.256;8.198;2022-07-04T09:47:56;24.20;69.80
47162;DHT22;32921;53.256;8.198;2022-07-04T09:50:23;24.20;74.50
47162;DHT22;32921;53.256;8.198;2022-07-04T09:52:59;25.40;72.40
47162;DHT22;32921;53.256;8.198;2022-07-04T09:55:33;26.90;65.90
47162;DHT22;32921;53.256;8.198;2022-07-04T09:58:07;27.90;65.90
47162;DHT22;32921;53.256;8.198;2022-07-04T10:00:35;28.00;66.50
47162;DHT22;32921;53.256;8.198;2022-07-04T10:03:18;28.20;63.00
47162;DHT22;32921;53.256;8.198;2022-07-04T10:05:45;27.90;60.90
47162;DHT22;32921;53.256;8.198;2022-07-04T10:08:11;26.10;63.90
47162;DHT22;32921;53.256;8.198;2022-07-04T10:10:38;25.80;63.40
47162;DHT22;32921;53.256;8.198;2022-07-04T10:13:10;25.30;65.30
47162;DHT22;32921;53.256;8.198;2022-07-04T10:15:38;25.00;66.10
47162;DHT22;32921;53.256;8.198;2022-07-04T10:18:06;25.00;67.00
47162;DHT22;32921;53.256;8.198;2022-07-04T10:20:32;25.70;65.60
47162;DHT22;32921;53.256;8.198;2022-07-04T10:22:58;26.50;62.90
47162;DHT22;32921;53.256;8.198;2022-07-04T10:25:24;27.60;62.80
47162;DHT22;32921;53.256;8.198;2022-07-04T10:27:50;27.80;62.90
47162;DHT22;32921;53.256;8.198;2022-07-04T10:30:24;27.30;62.80
47162;DHT22;32921;53.256;8.198;2022-07-04T10:32:51;27.30;62.10
47162;DHT22;32921;53.256;8.198;2022-07-04T10:35:51;27.50;61.90
47162;DHT22;32921;53.256;8.198;2022-07-04T10:38:20;28.00;63.40
47162;DHT22;32921;53.256;8.198;2022-07-04T10:40:49;28.20;62.40
47162;DHT22;32921;53.256;8.198;2022-07-04T10:45:56;27.30;62.70
47162;DHT22;32921;53.256;8.198;2022-07-04T10:48:24;26.10;64.20
47162;DHT22;32921;53.256;8.198;2022-07-04T10:51:04;25.00;65.90
47162;DHT22;32921;53.256;8.198;2022-07-04T10:53:30;24.10;67.90
47162;DHT22;32921;53.256;8.198;2022-07-04T10:59:28;24.50;70.40
47162;DHT22;32921;53.256;8.198;2022-07-04T11:07:17;24.70;68.50
47162;DHT22;32921;53.256;8.198;2022-07-04T11:09:43;24.20;71.20
47162;DHT22;32921;53.256;8.198;2022-07-04T11:12:10;23.80;70.80
47162;DHT22;32921;53.256;8.198;2022-07-04T11:17:27;23.10;74.50
47162;DHT22;32921;53.256;8.198;2022-07-04T11:20:00;22.60;75.60
47162;DHT22;32921;53.256;8.198;2022-07-04T11:22:29;22.20;77.40
47162;DHT22;32921;53.256;8.198;2022-07-04T11:24:56;21.70;78.90
47162;DHT22;32921;53.256;8.198;2022-07-04T11:27:22;21.40;83.70
47162;DHT22;32921;53.256;8.198;2022-07-04T11:29:51;20.80;95.20
47162;DHT22;32921;53.256;8.198;2022-07-04T11:32:18;19.80;99.90
47162;DHT22;32921;53.256;8.198;2022-07-04T11:34:44;19.10;99.90
47162;DHT22;32921;53.256;8.198;2022-07-04T11:37:10;18.90;99.90
47162;DHT22;32921;53.256;8.198;2022-07-04T11:39:35;19.00;99.90
47162;DHT22;32921;53.256;8.198;2022-07-04T11:42:01;19.20;99.90
47162;DHT22;32921;53.256;8.198;2022-07-04T11:44:45;19.30;99.90
47162;DHT22;32921;53.256;8.198;2022-07-04T11:47:43;19.40;99.90
47162;DHT22;32921;53.256;8.198;2022-07-04T11:50:10;19.30;99.90
47162;DHT22;32921;53.256;8.198;2022-07-04T11:52:41;19.60;99.90
47162;DHT22;32921;53.256;8.198;2022-07-04T11:55:10;20.10;99.90
47162;DHT22;32921;53.256;8.198;2022-07-04T11:57:44;20.50;99.90
47162;DHT22;32921;53.256;8.198;2022-07-04T12:00:12;20.80;99.90
47162;DHT22;32921;53.256;8.198;2022-07-04T12:02:38;20.90;99.90
47162;DHT22;32921;53.256;8.198;2022-07-04T12:05:09;21.80;99.90
47162;DHT22;32921;53.256;8.198;2022-07-04T12:07:36;23.50;98.00
47162;DHT22;32921;53.256;8.198;2022-07-04T12:10:17;25.00;90.90
47162;DHT22;32921;53.256;8.198;2022-07-04T12:12:52;25.40;86.80
47162;DHT22;32921;53.256;8.198;2022-07-04T12:15:19;26.40;80.80
47162;DHT22;32921;53.256;8.198;2022-07-04T12:17:48;27.40;79.00
47162;DHT22;32921;53.256;8.198;2022-07-04T12:20:18;28.00;77.00
47162;DHT22;32921;53.256;8.198;2022-07-04T12:22:50;29.30;71.30
47162;DHT22;32921;53.256;8.198;2022-07-04T12:25:21;29.40;69.80
47162;DHT22;32921;53.256;8.198;2022-07-04T12:28:10;29.20;66.60
47162;DHT22;32921;53.256;8.198;2022-07-04T12:30:38;29.30;65.50
47162;DHT22;32921;53.256;8.198;2022-07-04T12:33:06;29.50;66.70
47162;DHT22;32921;53.256;8.198;2022-07-04T12:40:49;29.60;65.90
47162;DHT22;32921;53.256;8.198;2022-07-04T12:43:15;29.50;64.10
47162;DHT22;32921;53.256;8.198;2022-07-04T12:45:52;30.00;61.40
47162;DHT22;32921;53.256;8.198;2022-07-04T12:48:26;29.90;62.10
47162;DHT22;32921;53.256;8.198;2022-07-04T12:50:54;29.30;60.10
47162;DHT22;32921;53.256;8.198;2022-07-04T12:53:20;28.00;62.10
47162;DHT22;32921;53.256;8.198;2022-07-04T12:55:47;29.00;62.00
47162;DHT22;32921;53.256;8.198;2022-07-04T12:58:13;29.10;59.10
47162;DHT22;32921;53.256;8.198;2022-07-04T13:00:40;29.20;58.80
47162;DHT22;32921;53.256;8.198;2022-07-04T13:03:06;28.20;61.70
47162;DHT22;32921;53.256;8.198;2022-07-04T13:05:36;27.10;62.80
47162;DHT22;32921;53.256;8.198;2022-07-04T13:08:03;26.70;63.20
47162;DHT22;32921;53.256;8.198;2022-07-04T13:10:29;26.50;64.80
47162;DHT22;32921;53.256;8.198;2022-07-04T13:12:54;25.90;65.30
47162;DHT22;32921;53.256;8.198;2022-07-04T13:15:20;25.00;66.60
47162;DHT22;32921;53.256;8.198;2022-07-04T13:17:46;25.60;66.10
47162;DHT22;32921;53.256;8.198;2022-07-04T13:20:11;26.70;65.60
47162;DHT22;32921;53.256;8.198;2022-07-04T13:22:38;28.80;63.50
47162;DHT22;32921;53.256;8.198;2022-07-04T13:25:04;29.80;61.80
47162;DHT22;32921;53.256;8.198;2022-07-04T13:27:29;30.60;57.60
47162;DHT22;32921;53.256;8.198;2022-07-04T13:29:55;30.40;57.50
47162;DHT22;32921;53.256;8.198;2022-07-04T13:32:21;30.50;55.60
47162;DHT22;32921;53.256;8.198;2022-07-04T13:34:46;30.90;56.20
47162;DHT22;32921;53.256;8.198;2022-07-04T13:37:12;31.20;55.30
47162;DHT22;32921;53.256;8.198;2022-07-04T13:39:40;29.40;57.60
47162;DHT22;32921;53.256;8.198;2022-07-04T13:42:06;27.80;61.10
47162;DHT22;32921;53.256;8.198;2022-07-04T13:44:31;27.40;62.70
47162;DHT22;32921;53.256;8.198;2022-07-04T13:46:57;27.30;62.60
47162;DHT22;32921;53.256;8.198;2022-07-04T13:49:24;27.40;62.00
47162;DHT22;32921;53.256;8.198;2022-07-04T13:51:49;28.90;59.60
47162;DHT22;32921;53.256;8.198;2022-07-04T13:54:15;30.40;58.60
47162;DHT22;32921;53.256;8.198;2022-07-04T13:56:41;30.20;57.50
47162;DHT22;32921;53.256;8.198;2022-07-04T13:59:08;28.50;58.60
47162;DHT22;32921;53.256;8.198;2022-07-04T14:01:35;26.70;62.30
47162;DHT22;32921;53.256;8.198;2022-07-04T14:04:00;27.60;61.60
47162;DHT22;32921;53.256;8.198;2022-07-04T14:06:26;29.00;57.70
47162;DHT22;32921;53.256;8.198;2022-07-04T14:08:52;29.30;57.50
47162;DHT22;32921;53.256;8.198;2022-07-04T14:11:17;28.20;59.10
47162;DHT22;32921;53.256;8.198;2022-07-04T14:13:43;27.20;59.50
47162;DHT22;32921;53.256;8.198;2022-07-04T14:16:09;27.60;59.60
47162;DHT22;32921;53.256;8.198;2022-07-04T14:18:34;28.60;58.30
47162;DHT22;32921;53.256;8.198;2022-07-04T14:21:00;28.40;57.10
47162;DHT22;32921;53.256;8.198;2022-07-04T14:23:26;27.80;58.80
47162;DHT22;32921;53.256;8.198;2022-07-04T14:26:14;27.20;59.50
47162;DHT22;32921;53.256;8.198;2022-07-04T14:28:41;28.30;59.00
47162;DHT22;32921;53.256;8.198;2022-07-04T14:31:07;27.30;58.50
47162;DHT22;32921;53.256;8.198;2022-07-04T14:33:33;27.40;59.30
47162;DHT22;32921;53.256;8.198;2022-07-04T14:36:00;28.50;57.80
47162;DHT22;32921;53.256;8.198;2022-07-04T14:38:26;28.30;57.00
47162;DHT22;32921;53.256;8.198;2022-07-04T14:40:51;27.40;59.10
47162;DHT22;32921;53.256;8.198;2022-07-04T14:43:17;26.90;59.50
47162;DHT22;32921;53.256;8.198;2022-07-04T14:45:44;26.10;61.30
47162;DHT22;32921;53.256;8.198;2022-07-04T14:48:10;25.50;62.90
47162;DHT22;32921;53.256;8.198;2022-07-04T14:50:35;25.60;61.90
47162;DHT22;32921;53.256;8.198;2022-07-04T14:53:01;25.50;62.30
47162;DHT22;32921;53.256;8.198;2022-07-04T14:55:26;26.00;60.90
47162;DHT22;32921;53.256;8.198;2022-07-04T14:57:52;28.00;58.60
47162;DHT22;32921;53.256;8.198;2022-07-04T15:00:18;29.00;57.10
47162;DHT22;32921;53.256;8.198;2022-07-04T15:02:43;30.00;56.50
47162;DHT22;32921;53.256;8.198;2022-07-04T15:05:12;30.50;55.30
47162;DHT22;32921;53.256;8.198;2022-07-04T15:07:38;30.60;53.60
47162;DHT22;32921;53.256;8.198;2022-07-04T15:10:07;30.20;53.90
47162;DHT22;32921;53.256;8.198;2022-07-04T15:12:34;29.20;55.10
47162;DHT22;32921;53.256;8.198;2022-07-04T15:14:59;28.10;55.80
47162;DHT22;32921;53.256;8.198;2022-07-04T15:17:25;26.50;60.20
47162;DHT22;32921;53.256;8.198;2022-07-04T15:19:50;26.70;60.20
47162;DHT22;32921;53.256;8.198;2022-07-04T15:22:35;26.90;59.60
47162;DHT22;32921;53.256;8.198;2022-07-04T15:25:19;27.90;58.00
47162;DHT22;32921;53.256;8.198;2022-07-04T15:27:44;28.70;56.30
47162;DHT22;32921;53.256;8.198;2022-07-04T15:30:11;29.90;55.50
47162;DHT22;32921;53.256;8.198;2022-07-04T15:32:36;28.70;56.70
47162;DHT22;32921;53.256;8.198;2022-07-04T15:35:02;28.80;56.40
47162;DHT22;32921;53.256;8.198;2022-07-04T15:37:28;29.60;55.40
47162;DHT22;32921;53.256;8.198;2022-07-04T15:39:54;29.30;54.90
47162;DHT22;32921;53.256;8.198;2022-07-04T15:42:20;27.30;58.50
47162;DHT22;32921;53.256;8.198;2022-07-04T15:44:45;27.40;58.60
47162;DHT22;32921;53.256;8.198;2022-07-04T15:47:11;28.70;55.60
47162;DHT22;32921;53.256;8.198;2022-07-04T15:49:37;27.20;58.00